Time;durP1;ratioP1;P1;durP2;ratioP2;P2;SDS_P1;SDS_P2;PMS_P1;PMS_P2;Temp;Humidity;BMP_temperature;BMP_pressure;BME280_temperature;BME280_humidity;BME280_pressure;Samples;Min_cycle;Max_cycle;Signal;HPM_P1;HPM_P2
2022/12/09 00:00:29;;;;;;;;;;;;;;;-0.65;77.28;97330.63;7385071;19;19926;-70
2022/12/09 00:02:55;;;;;;;;;;;;;;;-0.61;77.26;97333.81;7394922;19;19926;-70
2022/12/09 00:05:22;;;;;;;;;;;;;;;-0.60;76.98;97325.13;7389879;19;20604;-70
2022/12/09 00:07:49;;;;;;;;;;;;;;;-0.64;76.96;97326.25;7394187;19;19926;-71
2022/12/09 00:10:16;;;;;;;;;;;;;;;-0.70;76.90;97327.53;7391514;19;19986;-70
2022/12/09 00:12:45;;;;;;;;;;;;;;;-0.75;77.16;97317.47;7393314;19;19919;-70
2022/12/09 00:15:12;;;;;;;;;;;;;;;-0.72;77.26;97316.44;7388018;19;20368;-71
2022/12/09 00:17:38;;;;;;;;;;;;;;;-0.79;77.32;97307.41;7391169;19;19915;-70
2022/12/09 00:20:05;;;;;;;;;;;;;;;-0.75;77.32;97306.28;7388573;19;19911;-70
2022/12/09 00:22:33;;;;;;;;;;;;;;;-0.75;77.23;97304.50;7392866;19;19926;-71
2022/12/09 00:24:59;;;;;;;;;;;;;;;-0.82;77.20;97303.28;7391391;19;19922;-71
2022/12/09 00:27:26;;;;;;;;;;;;;;;-0.83;77.25;97295.63;7390759;19;19922;-70
2022/12/09 00:29:52;;;;;;;;;;;;;;;-0.87;77.23;97300.19;7390240;19;19919;-71
2022/12/09 00:32:19;;;;;;;;;;;;;;;-0.87;77.39;97294.97;7382627;19;20386;-71
2022/12/09 00:34:47;;;;;;;;;;;;;;;-0.86;77.24;97296.66;7390431;19;19970;-71
2022/12/09 00:37:13;;;;;;;;;;;;;;;-0.82;77.29;97297.25;7385527;19;19922;-70
2022/12/09 00:39:40;;;;;;;;;;;;;;;-0.83;77.09;97299.03;7389662;19;19926;-70
2022/12/09 00:42:06;;;;;;;;;;;;;;;-0.89;77.54;97291.69;7383995;19;19935;-71
2022/12/09 00:44:33;;;;;;;;;;;;;;;-0.93;77.38;97292.84;7388531;19;19939;-70
2022/12/09 00:47:00;;;;;;;;;;;;;;;-0.96;77.36;97286.09;7386073;19;20376;-70
2022/12/09 00:49:26;;;;;;;;;;;;;;;-0.94;77.39;97291.19;7387420;19;20258;-71
2022/12/09 00:51:53;;;;;;;;;;;;;;;-1.01;77.56;97293.38;7390415;19;20381;-70
2022/12/09 00:54:20;;;;;;;;;;;;;;;-1.02;77.65;97291.75;7389444;19;20367;-70
2022/12/09 00:56:47;;;;;;;;;;;;;;;-0.88;77.31;97293.34;7388669;19;19967;-70
2022/12/09 00:59:14;;;;;;;;;;;;;;;-0.93;77.36;97295.44;7389691;19;19954;-69
2022/12/09 01:01:40;;;;;;;;;;;;;;;-0.95;77.40;97294.72;7389553;19;19911;-69
2022/12/09 01:04:07;;;;;;;;;;;;;;;-1.04;77.38;97293.63;7381758;19;19926;-69
2022/12/09 01:06:34;;;;;;;;;;;;;;;-1.06;77.46;97295.50;7386331;19;19935;-69
2022/12/09 01:09:02;;;;;;;;;;;;;;;-0.97;77.20;97294.03;7389739;19;19919;-69
2022/12/09 01:11:29;;;;;;;;;;;;;;;-1.00;77.01;97299.41;7383757;19;19922;-69
2022/12/09 01:13:59;;;;;;;;;;;;;;;-1.13;77.55;97299.47;7388609;19;19923;-69
2022/12/09 01:16:28;;;;;;;;;;;;;;;-1.12;77.31;97308.91;7388725;19;19925;-69
2022/12/09 01:18:58;;;;;;;;;;;;;;;-1.13;77.88;97310.69;7390755;19;19926;-69
2022/12/09 01:21:25;;;;;;;;;;;;;;;-1.04;77.93;97309.19;7383339;19;20267;-70
2022/12/09 01:23:52;;;;;;;;;;;;;;;-1.03;77.91;97307.41;7387228;19;19923;-70
2022/12/09 01:26:20;;;;;;;;;;;;;;;-1.00;77.59;97307.19;7387262;19;20335;-69
2022/12/09 01:28:51;;;;;;;;;;;;;;;-1.09;77.61;97302.69;7387454;19;20454;-69
2022/12/09 01:31:20;;;;;;;;;;;;;;;-1.13;77.50;97309.88;7388722;19;20350;-69
2022/12/09 01:33:47;;;;;;;;;;;;;;;-1.08;77.74;97299.13;7391441;19;20334;-69
2022/12/09 01:36:18;;;;;;;;;;;;;;;-1.14;77.49;97293.44;7384951;19;19915;-69
2022/12/09 01:38:45;;;;;;;;;;;;;;;-1.04;77.54;97287.59;7387389;19;19914;-69
2022/12/09 01:41:13;;;;;;;;;;;;;;;-1.07;77.60;97286.06;7384575;19;19953;-70
2022/12/09 01:43:39;;;;;;;;;;;;;;;-1.14;77.78;97296.03;7385840;19;19939;-69
2022/12/09 01:46:07;;;;;;;;;;;;;;;-1.25;78.20;97289.97;7388862;19;19919;-69
2022/12/09 01:48:35;;;;;;;;;;;;;;;-1.21;77.99;97283.59;7390671;19;19915;-69
2022/12/09 01:51:04;;;;;;;;;;;;;;;-1.28;78.50;97274.63;7383672;19;20034;-69
2022/12/09 01:53:34;;;;;;;;;;;;;;;-1.13;77.91;97276.94;7382905;19;19930;-69
2022/12/09 01:56:02;;;;;;;;;;;;;;;-1.24;77.77;97278.63;7380862;19;20387;-69
2022/12/09 01:58:29;;;;;;;;;;;;;;;-1.33;77.85;97275.75;7386686;19;19939;-69
2022/12/09 02:00:56;;;;;;;;;;;;;;;-1.38;77.73;97270.06;7382914;19;21503;-70
2022/12/09 02:03:22;;;;;;;;;;;;;;;-1.27;77.58;97265.88;7389045;19;19914;-69
2022/12/09 02:05:49;;;;;;;;;;;;;;;-1.39;78.17;97273.59;7385792;19;19993;-70
2022/12/09 02:08:17;;;;;;;;;;;;;;;-1.35;77.75;97269.84;7387822;19;19934;-70
2022/12/09 02:10:49;;;;;;;;;;;;;;;-1.27;77.70;97265.88;7381985;19;19930;-69
2022/12/09 02:13:22;;;;;;;;;;;;;;;-1.37;78.19;97261.34;7384618;19;19922;-69
2022/12/09 02:15:58;;;;;;;;;;;;;;;-1.37;77.44;97252.72;7388764;19;19919;-69
2022/12/09 02:18:29;;;;;;;;;;;;;;;-1.46;77.38;97243.84;7389089;19;19944;-69
2022/12/09 02:20:57;;;;;;;;;;;;;;;-1.46;77.81;97236.06;7383478;19;19929;-70
2022/12/09 02:23:24;;;;;;;;;;;;;;;-1.42;77.83;97237.50;7388147;19;19931;-69
2022/12/09 02:25:55;;;;;;;;;;;;;;;-1.39;77.56;97234.69;7386627;19;19939;-69
2022/12/09 02:28:40;;;;;;;;;;;;;;;-1.19;77.18;97224.63;7382406;19;19918;-69
2022/12/09 02:31:23;;;;;;;;;;;;;;;-1.24;77.25;97222.38;7382830;19;19947;-69
2022/12/09 02:34:06;;;;;;;;;;;;;;;-1.20;76.60;97225.59;7388057;19;19929;-69
2022/12/09 02:36:34;;;;;;;;;;;;;;;-1.33;76.77;97221.28;7383557;19;19934;-69
2022/12/09 02:39:01;;;;;;;;;;;;;;;-1.31;77.11;97238.50;7386846;19;19930;-69
2022/12/09 02:41:28;;;;;;;;;;;;;;;-1.23;76.44;97242.22;7384209;19;19926;-69
2022/12/09 02:44:16;;;;;;;;;;;;;;;-1.40;76.59;97230.41;7384119;19;19915;-70
2022/12/09 02:46:43;;;;;;;;;;;;;;;-1.33;76.91;97230.81;7381656;19;20315;-70
2022/12/09 02:49:11;;;;;;;;;;;;;;;-1.36;76.61;97226.69;7383612;19;19927;-69
2022/12/09 02:51:41;;;;;;;;;;;;;;;-1.43;76.73;97228.06;7383857;19;19915;-70
2022/12/09 02:54:11;;;;;;;;;;;;;;;-1.56;77.12;97216.88;7386027;19;19994;-69
2022/12/09 02:56:40;;;;;;;;;;;;;;;-1.48;77.32;97216.34;7384050;19;19923;-69
2022/12/09 02:59:06;;;;;;;;;;;;;;;-1.42;77.36;97216.75;7384395;19;19914;-69
2022/12/09 03:01:45;;;;;;;;;;;;;;;-1.44;77.25;97220.41;7381450;19;19978;-69
2022/12/09 03:04:19;;;;;;;;;;;;;;;-1.36;77.46;97218.06;7386862;19;19930;-69
2022/12/09 03:06:46;;;;;;;;;;;;;;;-1.36;77.53;97200.75;7387749;19;19978;-69
2022/12/09 03:09:15;;;;;;;;;;;;;;;-1.46;77.47;97201.50;7386222;19;19919;-69
2022/12/09 03:11:42;;;;;;;;;;;;;;;-1.53;77.54;97190.72;7385418;19;19918;-70
2022/12/09 03:14:16;;;;;;;;;;;;;;;-1.61;77.65;97190.44;7387129;19;20256;-70
2022/12/09 03:16:43;;;;;;;;;;;;;;;-1.61;78.05;97193.88;7381030;19;19935;-70
2022/12/09 03:19:15;;;;;;;;;;;;;;;-1.51;77.84;97190.63;7375464;19;20318;-70
2022/12/09 03:21:44;;;;;;;;;;;;;;;-1.42;77.68;97185.63;7385503;19;19915;-69
2022/12/09 03:24:11;;;;;;;;;;;;;;;-1.47;77.94;97181.72;7385591;19;19919;-70
2022/12/09 03:26:38;;;;;;;;;;;;;;;-1.39;77.62;97182.81;7382832;19;19915;-69
2022/12/09 03:29:05;;;;;;;;;;;;;;;-1.38;77.45;97186.22;7384211;19;19911;-70
2022/12/09 03:31:32;;;;;;;;;;;;;;;-1.46;78.16;97181.59;7382571;19;20387;-70
2022/12/09 03:34:00;;;;;;;;;;;;;;;-1.33;77.66;97189.31;7383196;19;19918;-70
2022/12/09 03:36:27;;;;;;;;;;;;;;;-1.34;77.44;97177.28;7379565;19;20006;-70
2022/12/09 03:38:54;;;;;;;;;;;;;;;-1.56;77.49;97188.38;7387937;19;19939;-70
2022/12/09 03:41:22;;;;;;;;;;;;;;;-1.60;77.50;97187.75;7382733;19;20344;-69
2022/12/09 03:43:51;;;;;;;;;;;;;;;-1.65;77.74;97189.84;7380324;19;20223;-70
2022/12/09 03:46:19;;;;;;;;;;;;;;;-1.64;78.05;97185.50;7384553;19;19919;-70
2022/12/09 03:48:46;;;;;;;;;;;;;;;-1.62;78.05;97176.66;7384549;19;19921;-70
2022/12/09 03:51:14;;;;;;;;;;;;;;;-1.67;78.20;97170.97;7378038;19;19923;-69
2022/12/09 03:54:00;;;;;;;;;;;;;;;-1.65;78.01;97171.69;7382479;19;19935;-70
2022/12/09 03:56:28;;;;;;;;;;;;;;;-1.60;78.25;97166.19;7382481;19;20103;-70
2022/12/09 03:58:55;;;;;;;;;;;;;;;-1.58;78.14;97175.53;7385194;19;19990;-70
2022/12/09 04:01:22;;;;;;;;;;;;;;;-1.64;78.53;97169.94;7379925;19;19939;-70
2022/12/09 04:03:49;;;;;;;;;;;;;;;-1.62;78.39;97170.66;7384916;19;19922;-70
2022/12/09 04:06:16;;;;;;;;;;;;;;;-1.56;78.45;97176.22;7385226;19;19943;-69
2022/12/09 04:08:43;;;;;;;;;;;;;;;-1.59;78.27;97173.84;7390321;19;19915;-69
2022/12/09 04:11:10;;;;;;;;;;;;;;;-1.63;78.67;97171.59;7383205;19;19942;-70
2022/12/09 04:13:37;;;;;;;;;;;;;;;-1.62;78.64;97165.47;7391318;19;19915;-69
2022/12/09 04:16:04;;;;;;;;;;;;;;;-1.61;78.51;97169.72;7391429;19;19926;-70
2022/12/09 04:18:30;;;;;;;;;;;;;;;-1.66;78.86;97172.66;7393423;19;19918;-70
2022/12/09 04:20:57;;;;;;;;;;;;;;;-1.44;78.03;97177.13;7388493;19;20343;-70
2022/12/09 04:23:24;;;;;;;;;;;;;;;-1.46;77.95;97168.63;7390311;19;19915;-70
2022/12/09 04:25:50;;;;;;;;;;;;;;;-1.53;77.58;97167.38;7388180;19;19918;-69
2022/12/09 04:28:17;;;;;;;;;;;;;;;-1.68;77.92;97164.16;7389320;19;19922;-69
2022/12/09 04:30:44;;;;;;;;;;;;;;;-1.71;77.63;97158.34;7388056;19;19911;-69
2022/12/09 04:33:11;;;;;;;;;;;;;;;-1.77;78.19;97152.66;7392769;19;19922;-69
2022/12/09 04:35:38;;;;;;;;;;;;;;;-1.61;78.35;97147.19;7390788;19;19996;-69
2022/12/09 04:38:05;;;;;;;;;;;;;;;-1.56;78.05;97139.91;7390296;19;19918;-69
2022/12/09 04:40:32;;;;;;;;;;;;;;;-1.44;77.85;97132.19;7387691;19;19986;-69
2022/12/09 04:42:59;;;;;;;;;;;;;;;-1.41;77.74;97125.00;7387061;19;19919;-70
2022/12/09 04:45:26;;;;;;;;;;;;;;;-1.52;77.81;97127.56;7390430;19;19922;-70
2022/12/09 04:47:52;;;;;;;;;;;;;;;-1.54;78.06;97121.66;7393269;19;19935;-70
2022/12/09 04:50:19;;;;;;;;;;;;;;;-1.57;77.90;97120.09;7388743;19;19918;-70
2022/12/09 04:52:46;;;;;;;;;;;;;;;-1.59;77.68;97118.56;7391699;19;19918;-70
2022/12/09 04:55:13;;;;;;;;;;;;;;;-1.55;78.19;97112.22;7392029;19;19941;-70
2022/12/09 04:57:40;;;;;;;;;;;;;;;-1.64;78.37;97115.47;7386623;19;20431;-70
2022/12/09 05:00:07;;;;;;;;;;;;;;;-1.57;78.22;97101.13;7388066;19;19922;-70
2022/12/09 05:02:34;;;;;;;;;;;;;;;-1.50;78.16;97099.75;7390657;19;20279;-70
2022/12/09 05:05:01;;;;;;;;;;;;;;;-1.48;77.99;97097.84;7391728;19;19927;-70
2022/12/09 05:07:30;;;;;;;;;;;;;;;-1.51;78.01;97094.66;7389782;19;19929;-70
2022/12/09 05:09:57;;;;;;;;;;;;;;;-1.51;77.80;97097.25;7384790;19;20006;-70
2022/12/09 05:12:24;;;;;;;;;;;;;;;-1.57;77.99;97096.78;7383261;19;20047;-70
2022/12/09 05:14:51;;;;;;;;;;;;;;;-1.61;78.08;97091.91;7384270;19;19931;-70
2022/12/09 05:17:17;;;;;;;;;;;;;;;-1.65;78.22;97085.31;7384610;19;19923;-69
2022/12/09 05:19:44;;;;;;;;;;;;;;;-1.58;78.11;97092.53;7387534;19;19923;-70
2022/12/09 05:22:11;;;;;;;;;;;;;;;-1.60;78.24;97096.19;7389712;19;20260;-70
2022/12/09 05:24:39;;;;;;;;;;;;;;;-1.57;78.22;97086.41;7389473;19;20362;-70
2022/12/09 05:27:06;;;;;;;;;;;;;;;-1.62;78.13;97087.66;7390188;19;19959;-70
2022/12/09 05:29:33;;;;;;;;;;;;;;;-1.58;78.49;97086.50;7388284;19;19995;-70
2022/12/09 05:31:59;;;;;;;;;;;;;;;-1.60;78.37;97083.22;7384422;19;19937;-70
2022/12/09 05:34:26;;;;;;;;;;;;;;;-1.60;78.30;97086.63;7387400;19;19922;-70
2022/12/09 05:36:54;;;;;;;;;;;;;;;-1.47;78.56;97078.78;7387302;19;19922;-69
2022/12/09 05:39:20;;;;;;;;;;;;;;;-1.37;78.31;97078.91;7388580;19;19919;-70
2022/12/09 05:41:48;;;;;;;;;;;;;;;-1.31;77.89;97088.03;7387468;19;19926;-70
2022/12/09 05:44:14;;;;;;;;;;;;;;;-1.40;77.71;97068.75;7389035;19;19933;-70
2022/12/09 05:46:41;;;;;;;;;;;;;;;-1.37;77.84;97064.19;7387684;19;19922;-70
2022/12/09 05:49:08;;;;;;;;;;;;;;;-1.27;77.62;97068.69;7385029;19;19919;-70
2022/12/09 05:51:35;;;;;;;;;;;;;;;-1.47;77.78;97062.38;7388017;19;19994;-70
2022/12/09 05:54:03;;;;;;;;;;;;;;;-1.48;77.89;97063.31;7391221;19;19939;-70
2022/12/09 05:56:30;;;;;;;;;;;;;;;-1.49;77.73;97066.84;7389124;19;20375;-70
2022/12/09 05:58:57;;;;;;;;;;;;;;;-1.45;nan;97056.16;7386900;19;19937;-71
2022/12/09 06:01:25;;;;;;;;;;;;;;;-1.48;77.48;97060.72;7383609;19;19918;-70
2022/12/09 06:03:52;;;;;;;;;;;;;;;-1.62;77.72;97053.97;7385854;19;20352;-71
2022/12/09 06:06:21;;;;;;;;;;;;;;;-1.53;77.72;97042.91;7379371;19;19926;-70
2022/12/09 06:08:48;;;;;;;;;;;;;;;-1.56;78.09;97048.31;7386636;19;19932;-70
2022/12/09 06:11:17;;;;;;;;;;;;;;;-1.53;78.17;97055.03;7385054;19;19939;-70
2022/12/09 06:13:45;;;;;;;;;;;;;;;-1.49;78.43;97053.88;7384988;19;20038;-69
2022/12/09 06:16:13;;;;;;;;;;;;;;;-1.42;78.13;97050.72;7388692;19;19922;-69
2022/12/09 06:18:40;;;;;;;;;;;;;;;-1.45;78.25;97040.59;7387861;19;19929;-70
2022/12/09 06:21:07;;;;;;;;;;;;;;;-1.39;77.98;97041.91;7383020;19;19919;-70
2022/12/09 06:23:35;;;;;;;;;;;;;;;-1.36;78.12;97039.88;7380633;19;19930;-70
2022/12/09 06:26:03;;;;;;;;;;;;;;;-1.26;77.85;97034.00;7382572;19;19926;-69
2022/12/09 06:28:30;;;;;;;;;;;;;;;-1.14;77.50;97040.88;7381698;19;19933;-70
2022/12/09 06:30:56;;;;;;;;;;;;;;;-1.16;77.58;97043.59;7383687;19;19922;-70
2022/12/09 06:33:24;;;;;;;;;;;;;;;-1.18;77.55;97037.69;7385727;19;19914;-70
2022/12/09 06:36:10;;;;;;;;;;;;;;;-1.17;77.63;97043.69;7387101;19;20348;-69
2022/12/09 06:38:37;;;;;;;;;;;;;;;-1.18;77.71;97039.47;7384906;19;19922;-70
2022/12/09 06:41:07;;;;;;;;;;;;;;;-1.16;77.72;97032.38;7383908;19;20282;-70
2022/12/09 06:43:34;;;;;;;;;;;;;;;-1.17;77.78;97039.31;7384165;19;19919;-70
2022/12/09 06:46:01;;;;;;;;;;;;;;;-1.27;78.29;97040.13;7381859;19;19918;-70
2022/12/09 06:48:28;;;;;;;;;;;;;;;-1.09;77.94;97043.94;7387736;19;20362;-70
2022/12/09 06:50:55;;;;;;;;;;;;;;;-1.11;78.08;97038.03;7380031;19;19940;-69
2022/12/09 06:53:22;;;;;;;;;;;;;;;-1.03;78.23;97051.25;7387437;19;19947;-70
2022/12/09 06:55:48;;;;;;;;;;;;;;;-1.02;78.01;97052.94;7382715;19;19925;-69
2022/12/09 06:58:15;;;;;;;;;;;;;;;-1.05;77.53;97045.38;7383953;19;19930;-70
2022/12/09 07:00:42;;;;;;;;;;;;;;;-1.01;77.82;97044.19;7379687;19;20398;-70
2022/12/09 07:03:10;;;;;;;;;;;;;;;-1.07;77.71;97043.84;7387910;19;19918;-69
2022/12/09 07:05:37;;;;;;;;;;;;;;;-1.13;77.90;97042.53;7387034;19;19934;-70
2022/12/09 07:08:04;;;;;;;;;;;;;;;-1.11;77.60;97035.44;7388176;19;19939;-70
2022/12/09 07:10:31;;;;;;;;;;;;;;;-0.94;77.61;97036.78;7385658;19;19919;-69
2022/12/09 07:12:58;;;;;;;;;;;;;;;-0.93;77.70;97036.63;7384004;19;19918;-70
2022/12/09 07:15:25;;;;;;;;;;;;;;;-0.77;nan;97035.47;7382472;19;20360;-70
2022/12/09 07:17:52;;;;;;;;;;;;;;;-0.84;77.88;97042.06;7383651;19;19915;-69
2022/12/09 07:20:19;;;;;;;;;;;;;;;-0.66;77.47;97045.84;7383218;19;19911;-70
2022/12/09 07:22:46;;;;;;;;;;;;;;;-0.56;76.87;97043.38;7387378;19;19926;-70
2022/12/09 07:25:13;;;;;;;;;;;;;;;-0.49;76.01;97040.19;7387665;19;20306;-70
2022/12/09 07:27:40;;;;;;;;;;;;;;;-0.59;76.25;97039.25;7385767;19;19926;-70
2022/12/09 07:30:07;;;;;;;;;;;;;;;-0.41;75.43;97033.56;7381602;19;19925;-70
2022/12/09 07:32:35;;;;;;;;;;;;;;;-0.28;75.00;97027.28;7382297;19;19939;-70
2022/12/09 07:35:01;;;;;;;;;;;;;;;-0.22;74.63;97025.97;7385111;19;19919;-70
2022/12/09 07:37:28;;;;;;;;;;;;;;;-0.28;74.67;97029.06;7385083;19;19919;-70
2022/12/09 07:39:55;;;;;;;;;;;;;;;-0.31;74.76;97031.91;7385057;19;19994;-70
2022/12/09 07:42:22;;;;;;;;;;;;;;;-0.29;75.30;97022.19;7389862;19;19937;-70
2022/12/09 07:44:53;;;;;;;;;;;;;;;-0.32;75.86;97023.25;7391368;19;19915;-70
2022/12/09 07:47:19;;;;;;;;;;;;;;;-0.23;75.95;97024.31;7391341;19;19919;-70
2022/12/09 07:49:46;;;;;;;;;;;;;;;-0.20;75.83;97024.06;7392141;19;19937;-70
2022/12/09 07:52:13;;;;;;;;;;;;;;;-0.23;76.51;97025.16;7388998;19;20279;-70
2022/12/09 07:54:40;;;;;;;;;;;;;;;-0.19;76.42;97028.31;7393178;19;20352;-70
2022/12/09 07:57:07;;;;;;;;;;;;;;;0.02;77.02;97023.19;7393237;19;20379;-70
2022/12/09 07:59:34;;;;;;;;;;;;;;;0.12;76.59;97023.28;7393236;19;21963;-70
2022/12/09 08:02:02;;;;;;;;;;;;;;;0.24;76.74;97019.69;7390155;19;19974;-70
2022/12/09 08:04:33;;;;;;;;;;;;;;;0.25;76.36;97026.53;7390643;19;19929;-69
2022/12/09 08:07:00;;;;;;;;;;;;;;;0.38;75.90;97016.78;7391557;19;20266;-70
2022/12/09 08:09:27;;;;;;;;;;;;;;;0.48;75.52;97019.47;7394100;19;19922;-70
2022/12/09 08:11:54;;;;;;;;;;;;;;;0.60;75.13;97022.81;7391778;19;19990;-70
2022/12/09 08:14:22;;;;;;;;;;;;;;;0.71;74.75;97019.31;7391382;19;20335;-69
2022/12/09 08:16:48;;;;;;;;;;;;;;;0.69;73.55;97022.06;7391752;19;20290;-70
2022/12/09 08:19:16;;;;;;;;;;;;;;;0.76;73.46;97017.97;7386590;19;19931;-70
2022/12/09 08:21:42;;;;;;;;;;;;;;;0.82;72.95;97019.28;7385697;19;19915;-70
2022/12/09 08:24:13;;;;;;;;;;;;;;;0.86;73.06;97018.03;7393924;19;19964;-69
2022/12/09 08:26:40;;;;;;;;;;;;;;;0.76;73.98;97015.38;7387569;19;19928;-69
2022/12/09 08:29:08;;;;;;;;;;;;;;;0.83;74.17;97010.50;7392142;19;19937;-70
2022/12/09 08:31:35;;;;;;;;;;;;;;;0.91;74.18;97013.28;7391192;19;19986;-69
2022/12/09 08:34:07;;;;;;;;;;;;;;;1.13;73.27;97009.66;7394364;19;19927;-70
2022/12/09 08:36:35;;;;;;;;;;;;;;;1.15;72.73;97002.56;7388607;19;19918;-69
2022/12/09 08:39:02;;;;;;;;;;;;;;;1.21;72.93;97001.22;7388723;19;19947;-70
2022/12/09 08:41:36;;;;;;;;;;;;;;;1.34;71.92;97003.59;7390823;19;19915;-70
2022/12/09 08:44:06;;;;;;;;;;;;;;;1.23;72.36;97002.72;7392252;19;19923;-69
2022/12/09 08:46:33;;;;;;;;;;;;;;;1.26;71.54;97004.25;7393424;19;19919;-69
2022/12/09 08:49:00;;;;;;;;;;;;;;;1.17;72.77;96987.63;7391857;19;19956;-69
2022/12/09 08:51:28;;;;;;;;;;;;;;;1.33;73.58;96994.13;7387168;19;19923;-69
2022/12/09 08:53:58;;;;;;;;;;;;;;;1.28;72.65;96987.53;7386735;19;19935;-69
2022/12/09 08:56:25;;;;;;;;;;;;;;;1.34;72.44;96986.16;7390020;19;19929;-69
2022/12/09 08:58:52;;;;;;;;;;;;;;;1.30;71.47;96987.41;7389067;19;19911;-69
2022/12/09 09:01:20;;;;;;;;;;;;;;;1.14;72.30;96990.50;7386778;19;19931;-69
2022/12/09 09:03:48;;;;;;;;;;;;;;;1.23;71.89;96988.88;7390661;19;19923;-69
2022/12/09 09:06:15;;;;;;;;;;;;;;;1.26;71.86;96989.47;7390595;19;19919;-69
2022/12/09 09:08:42;;;;;;;;;;;;;;;1.13;72.60;96978.41;7391903;19;19982;-69
2022/12/09 09:11:10;;;;;;;;;;;;;;;1.24;72.19;96986.16;7384635;19;19926;-69
2022/12/09 09:13:38;;;;;;;;;;;;;;;1.37;72.30;96985.09;7389399;19;19995;-69
2022/12/09 09:16:09;;;;;;;;;;;;;;;1.36;72.23;96986.88;7390100;19;19911;-69
2022/12/09 09:18:37;;;;;;;;;;;;;;;1.19;72.62;96987.50;7390856;19;19919;-69
2022/12/09 09:21:04;;;;;;;;;;;;;;;1.22;73.06;96976.81;7385873;19;19930;-68
2022/12/09 09:23:31;;;;;;;;;;;;;;;1.17;73.80;96981.59;7388223;19;19955;-69
2022/12/09 09:25:58;;;;;;;;;;;;;;;1.26;73.22;96972.97;7385203;19;19925;-69
2022/12/09 09:28:25;;;;;;;;;;;;;;;1.38;73.22;96979.75;7383808;19;19922;-69
2022/12/09 09:30:57;;;;;;;;;;;;;;;1.41;72.64;96981.28;7388221;19;19919;-70
2022/12/09 09:33:24;;;;;;;;;;;;;;;1.42;73.08;96985.50;7391302;19;19933;-69
2022/12/09 09:35:54;;;;;;;;;;;;;;;1.60;71.98;96985.69;7385503;19;19918;-69
2022/12/09 09:38:21;;;;;;;;;;;;;;;1.52;72.22;96983.75;7388136;19;19953;-69
2022/12/09 09:40:48;;;;;;;;;;;;;;;1.53;72.37;96983.63;7384634;19;19957;-69
2022/12/09 09:43:16;;;;;;;;;;;;;;;1.41;72.38;96971.66;7384836;19;19994;-69
2022/12/09 09:45:42;;;;;;;;;;;;;;;1.62;72.46;96968.97;7381225;19;19990;-69
2022/12/09 09:48:11;;;;;;;;;;;;;;;1.88;71.78;96969.28;7386687;19;19926;-69
2022/12/09 09:50:48;;;;;;;;;;;;;;;1.86;71.76;96970.38;7385432;19;20356;-69
2022/12/09 09:53:20;;;;;;;;;;;;;;;1.83;72.32;96970.66;7387325;19;19974;-68
2022/12/09 09:55:49;;;;;;;;;;;;;;;2.07;71.63;96965.84;7388057;19;19915;-69
2022/12/09 09:58:17;;;;;;;;;;;;;;;2.26;70.69;96966.81;7386520;19;20641;-69
2022/12/09 10:00:56;;;;;;;;;;;;;;;2.32;70.74;96953.22;7379676;19;19921;-69
2022/12/09 10:03:30;;;;;;;;;;;;;;;2.17;71.47;96956.25;7388486;19;19919;-68
2022/12/09 10:05:59;;;;;;;;;;;;;;;2.21;71.05;96954.19;7386118;19;19974;-68
2022/12/09 10:08:27;;;;;;;;;;;;;;;2.17;71.11;96958.03;7387910;19;19982;-69
2022/12/09 10:10:54;;;;;;;;;;;;;;;2.29;70.67;96956.09;7384843;19;19922;-69
2022/12/09 10:13:40;;;;;;;;;;;;;;;2.24;70.92;96946.09;7387721;19;19919;-69
2022/12/09 10:16:15;;;;;;;;;;;;;;;2.22;70.73;96934.16;7385199;19;19922;-69
2022/12/09 10:18:54;;;;;;;;;;;;;;;2.07;70.77;96939.78;7383245;19;19914;-68
2022/12/09 10:21:23;;;;;;;;;;;;;;;2.28;71.39;96937.00;7382484;19;20079;-69
2022/12/09 10:23:49;;;;;;;;;;;;;;;2.62;70.10;96936.53;7387825;19;19943;-69
2022/12/09 10:26:26;;;;;;;;;;;;;;;2.62;70.21;96937.34;7386846;19;19939;-69
2022/12/09 10:28:56;;;;;;;;;;;;;;;2.50;69.84;96930.69;7386105;19;19993;-69
2022/12/09 10:31:23;;;;;;;;;;;;;;;2.42;70.52;96943.56;7383668;19;19926;-69
2022/12/09 10:33:50;;;;;;;;;;;;;;;2.51;70.43;96936.72;7383427;19;19926;-69
2022/12/09 10:36:27;;;;;;;;;;;;;;;2.70;69.43;96939.28;7384998;19;19922;-69
2022/12/09 10:39:00;;;;;;;;;;;;;;;2.60;69.82;96939.28;7379261;19;20509;-69
2022/12/09 10:44:20;;;;;;;;;;;;;;;2.44;70.13;96939.03;7386802;19;19922;-69
2022/12/09 10:46:47;;;;;;;;;;;;;;;2.42;69.98;96931.38;7383221;19;20208;-70
2022/12/09 10:49:18;;;;;;;;;;;;;;;2.18;70.66;96930.97;7380817;19;19989;-69
2022/12/09 10:51:49;;;;;;;;;;;;;;;2.31;71.32;96917.63;7376862;19;19919;-69
2022/12/09 10:54:22;;;;;;;;;;;;;;;2.52;70.06;96915.66;7382170;19;20324;-69
2022/12/09 10:57:08;;;;;;;;;;;;;;;2.45;69.72;96909.38;7382957;19;19927;-69
2022/12/09 10:59:35;;;;;;;;;;;;;;;2.45;71.05;96906.78;7382222;19;19994;-69
2022/12/09 11:02:15;;;;;;;;;;;;;;;2.65;69.91;96902.31;7387262;19;20300;-69
2022/12/09 11:04:42;;;;;;;;;;;;;;;2.57;69.75;96902.19;7387368;19;20383;-69
2022/12/09 11:07:15;;;;;;;;;;;;;;;2.56;70.09;96896.16;7383543;19;19922;-70
2022/12/09 11:09:46;;;;;;;;;;;;;;;2.37;70.27;96904.88;7384642;19;19927;-69
2022/12/09 11:12:26;;;;;;;;;;;;;;;2.20;71.12;96911.59;7386755;19;19930;-69
2022/12/09 11:14:57;;;;;;;;;;;;;;;2.20;71.81;96906.41;7385768;19;19955;-69
2022/12/09 11:17:29;;;;;;;;;;;;;;;2.35;71.66;96903.38;7384291;19;20343;-69
2022/12/09 11:20:05;;;;;;;;;;;;;;;2.39;71.40;96902.09;7382919;19;20388;-69
2022/12/09 11:22:40;;;;;;;;;;;;;;;2.61;71.15;96898.34;7386029;19;19925;-69
2022/12/09 11:25:10;;;;;;;;;;;;;;;2.46;71.83;96903.19;7383232;19;19934;-69
2022/12/09 11:27:39;;;;;;;;;;;;;;;2.76;71.31;96906.53;7385887;19;19919;-69
2022/12/09 11:30:06;;;;;;;;;;;;;;;2.72;71.18;96898.16;7379897;19;19919;-69
2022/12/09 11:32:52;;;;;;;;;;;;;;;2.90;70.69;96890.41;7386580;19;19935;-70
2022/12/09 11:35:22;;;;;;;;;;;;;;;2.97;70.48;96893.25;7386386;19;19926;-69
2022/12/09 11:37:49;;;;;;;;;;;;;;;3.01;70.24;96892.84;7382923;19;19947;-69
2022/12/09 11:40:16;;;;;;;;;;;;;;;3.13;69.84;96874.34;7379267;19;19937;-69
2022/12/09 11:42:42;;;;;;;;;;;;;;;3.08;70.38;96872.16;7382278;19;19918;-70
2022/12/09 11:45:16;;;;;;;;;;;;;;;3.15;70.31;96860.16;7383774;19;20414;-69
2022/12/09 11:47:46;;;;;;;;;;;;;;;3.16;70.52;96861.81;7384445;19;19914;-69
2022/12/09 11:50:33;;;;;;;;;;;;;;;3.10;71.29;96858.97;7378462;19;19964;-71
2022/12/09 11:53:26;;;;;;;;;;;;;;;3.03;71.83;96862.16;7386640;19;20306;-69
2022/12/09 11:55:56;;;;;;;;;;;;;;;3.37;70.32;96856.31;7383874;19;19962;-69
2022/12/09 11:58:28;;;;;;;;;;;;;;;3.27;69.90;96847.72;7381675;19;20322;-69
2022/12/09 12:01:14;;;;;;;;;;;;;;;3.31;70.57;96854.28;7382196;19;19926;-69
2022/12/09 12:03:44;;;;;;;;;;;;;;;3.29;70.07;96851.84;7385326;19;19923;-69
2022/12/09 12:06:13;;;;;;;;;;;;;;;3.43;70.18;96858.34;7384900;19;19926;-69
2022/12/09 12:08:45;;;;;;;;;;;;;;;3.54;69.51;96853.88;7385195;19;19935;-69
2022/12/09 12:11:13;;;;;;;;;;;;;;;3.52;68.96;96852.19;7379927;19;19921;-69
2022/12/09 12:13:41;;;;;;;;;;;;;;;3.49;69.27;96862.97;7381492;19;20690;-69
2022/12/09 12:16:09;;;;;;;;;;;;;;;3.48;69.59;96844.84;7378252;19;19923;-70
2022/12/09 12:18:52;;;;;;;;;;;;;;;3.43;69.63;96847.88;7381862;19;20285;-69
2022/12/09 12:21:21;;;;;;;;;;;;;;;3.37;69.63;96848.50;7375937;19;19939;-70
2022/12/09 12:24:06;;;;;;;;;;;;;;;3.22;70.34;96852.56;7380403;19;19949;-69
2022/12/09 12:26:39;;;;;;;;;;;;;;;3.24;70.43;96842.78;7376937;19;19923;-70
2022/12/09 12:29:07;;;;;;;;;;;;;;;3.27;71.19;96835.47;7386710;19;19923;-70
2022/12/09 12:32:02;;;;;;;;;;;;;;;3.20;71.47;96833.59;7383925;19;19915;-69
2022/12/09 12:34:44;;;;;;;;;;;;;;;3.21;70.88;96835.22;7385239;19;20260;-69
2022/12/09 12:37:11;;;;;;;;;;;;;;;3.13;71.48;96832.53;7385751;19;19919;-69
2022/12/09 12:39:41;;;;;;;;;;;;;;;2.94;71.81;96826.44;7387651;19;20248;-70
2022/12/09 12:42:27;;;;;;;;;;;;;;;3.23;71.41;96828.06;7387603;19;19915;-70
2022/12/09 12:47:56;;;;;;;;;;;;;;;3.13;72.04;96827.31;7378670;19;19935;-70
2022/12/09 12:50:23;;;;;;;;;;;;;;;3.07;72.85;96823.50;7386926;19;20332;-70
2022/12/09 12:53:08;;;;;;;;;;;;;;;3.15;72.28;96846.28;7390390;19;19926;-70
2022/12/09 12:55:40;;;;;;;;;;;;;;;3.11;72.06;96830.09;7390260;19;19922;-70
2022/12/09 12:58:30;;;;;;;;;;;;;;;3.17;72.18;96839.94;7390302;19;19923;-71
2022/12/09 13:01:06;;;;;;;;;;;;;;;3.17;72.10;96837.31;7384045;19;19951;-70
2022/12/09 13:03:33;;;;;;;;;;;;;;;3.11;71.76;96852.75;7385598;19;20502;-70
2022/12/09 13:05:59;;;;;;;;;;;;;;;3.20;71.60;96847.47;7386423;19;19950;-71